createdAt,value
2023-03-22T00:02:59.456Z,14.00
2023-03-22T00:07:02.675Z,14.06
2023-03-22T00:11:03.146Z,14.02
2023-03-22T00:15:07.688Z,14.04
2023-03-22T00:19:08.749Z,14.04
2023-03-22T00:23:12.472Z,14.03
2023-03-22T00:27:12.812Z,13.94
2023-03-22T00:31:14.985Z,13.95
2023-03-22T00:35:16.771Z,14.01
2023-03-22T00:39:19.778Z,13.90
2023-03-22T00:43:21.839Z,13.87
2023-03-22T00:47:24.924Z,13.85
2023-03-22T00:51:27.461Z,13.87
2023-03-22T00:55:31.381Z,13.97
2023-03-22T00:59:31.886Z,13.99
2023-03-22T01:03:33.628Z,13.89
2023-03-22T01:07:34.192Z,13.74
2023-03-22T01:11:39.797Z,13.27
2023-03-22T01:15:41.627Z,13.05
2023-03-22T01:19:43.528Z,12.95
2023-03-22T01:23:43.917Z,12.99
2023-03-22T01:27:47.458Z,12.85
2023-03-22T01:31:48.049Z,12.99
2023-03-22T01:35:48.665Z,13.00
2023-03-22T01:39:50.038Z,13.12
2023-03-22T01:44:32.536Z,12.56
2023-03-22T01:48:42.123Z,12.29
2023-03-22T01:52:44.333Z,12.05
2023-03-22T01:56:53.192Z,11.88
2023-03-22T02:01:08.379Z,11.90
2023-03-22T02:05:22.519Z,11.69
2023-03-22T02:09:24.779Z,11.52
2023-03-22T02:13:56.652Z,11.28
2023-03-22T02:18:45.276Z,11.17
2023-03-22T02:23:39.752Z,11.06
2023-03-22T02:28:20.699Z,10.95
2023-03-22T02:33:08.873Z,10.88
2023-03-22T02:37:56.626Z,10.79
2023-03-22T02:42:18.819Z,10.76
2023-03-22T02:46:30.857Z,10.78
2023-03-22T02:50:41.374Z,10.85
2023-03-22T02:54:50.795Z,10.44
2023-03-22T02:58:59.753Z,10.38
2023-03-22T03:03:11.550Z,10.37
2023-03-22T03:07:17.401Z,10.32
2023-03-22T03:11:18.090Z,10.04
2023-03-22T03:15:26.848Z,10.12
2023-03-22T03:19:37.136Z,10.12
2023-03-22T03:23:51.534Z,10.08
2023-03-22T03:28:00.506Z,9.78
2023-03-22T03:32:09.840Z,9.73
2023-03-22T03:36:17.580Z,9.83
2023-03-22T03:40:23.812Z,9.70
2023-03-22T03:44:25.662Z,9.41
2023-03-22T03:48:34.945Z,9.42
2023-03-22T03:52:35.842Z,9.43
2023-03-22T03:56:37.319Z,9.62
2023-03-22T04:00:39.652Z,9.59
2023-03-22T04:05:04.418Z,9.56
2023-03-22T04:09:05.966Z,9.50
2023-03-22T04:13:12.326Z,9.54
2023-03-22T04:17:13.526Z,9.40
2023-03-22T04:21:16.764Z,9.28
2023-03-22T04:25:34.151Z,9.06
2023-03-22T04:29:40.818Z,9.15
2023-03-22T04:34:05.774Z,9.13
2023-03-22T04:38:31.477Z,9.14
2023-03-22T04:42:32.377Z,9.08
2023-03-22T04:46:44.727Z,8.86
2023-03-22T04:50:45.752Z,8.74
2023-03-22T04:54:49.521Z,8.76
2023-03-22T04:58:50.677Z,8.61
2023-03-22T05:02:52.138Z,8.45
2023-03-22T05:07:01.965Z,8.39
2023-03-22T05:11:20.422Z,8.49
2023-03-22T05:15:33.964Z,8.55
2023-03-22T05:19:36.985Z,8.51
2023-03-22T05:23:38.720Z,8.32
2023-03-22T05:27:41.716Z,8.51
2023-03-22T05:31:56.134Z,8.60
2023-03-22T05:35:57.063Z,8.62
2023-03-22T05:39:59.105Z,8.61
2023-03-22T05:44:12.781Z,8.55
2023-03-22T05:48:22.158Z,8.68
2023-03-22T05:52:22.991Z,8.73
2023-03-22T05:56:41.444Z,8.82
2023-03-22T06:00:44.321Z,8.89
2023-03-22T06:05:05.041Z,8.78
2023-03-22T06:09:16.531Z,8.77
2023-03-22T06:13:24.535Z,8.77
2023-03-22T06:17:28.013Z,8.88
2023-03-22T06:21:28.494Z,8.95
2023-03-22T06:25:29.548Z,9.05
2023-03-22T06:29:30.487Z,9.43
2023-03-22T06:33:36.316Z,9.69
2023-03-22T06:37:48.359Z,9.79
2023-03-22T06:41:49.180Z,9.66
2023-03-22T06:45:49.907Z,9.80
2023-03-22T06:49:58.834Z,10.01
2023-03-22T06:54:12.785Z,10.33
2023-03-22T06:58:14.662Z,10.50
2023-03-22T07:02:17.094Z,10.76
2023-03-22T07:06:41.400Z,10.89
2023-03-22T07:10:44.299Z,10.95
2023-03-22T07:14:46.526Z,10.93
2023-03-22T07:18:57.771Z,11.17
2023-03-22T07:23:01.328Z,11.36
2023-03-22T07:27:05.147Z,11.89
2023-03-22T07:31:10.069Z,12.72
2023-03-22T07:35:45.545Z,13.16
2023-03-22T07:39:49.205Z,13.53
2023-03-22T07:43:55.440Z,13.56
2023-03-22T07:48:02.835Z,13.82
2023-03-22T07:52:26.224Z,13.99
2023-03-22T07:56:31.908Z,14.37
2023-03-22T08:00:34.184Z,14.60
2023-03-22T08:04:56.707Z,15.15
2023-03-22T08:09:17.539Z,15.53
2023-03-22T08:13:26.036Z,16.01
2023-03-22T08:17:27.125Z,16.42
2023-03-22T08:21:27.780Z,16.70
2023-03-22T08:25:30.419Z,17.05
2023-03-22T08:29:41.938Z,17.03
2023-03-22T08:33:42.724Z,17.46
2023-03-22T08:37:44.080Z,17.92
2023-03-22T08:41:44.945Z,18.18
2023-03-22T08:45:48.497Z,18.76
2023-03-22T08:49:50.629Z,19.18
2023-03-22T08:53:58.908Z,19.02
2023-03-22T08:58:32.265Z,17.92
2023-03-22T09:03:08.170Z,17.93
2023-03-22T09:07:08.948Z,17.73
2023-03-22T09:11:13.264Z,18.20
2023-03-22T09:15:15.614Z,18.90
2023-03-22T09:19:22.995Z,18.84
2023-03-22T09:23:23.818Z,19.02
2023-03-22T09:27:25.235Z,19.35
2023-03-22T09:31:25.965Z,19.43
2023-03-22T09:35:45.019Z,18.45
2023-03-22T09:39:48.015Z,18.83
2023-03-22T09:43:56.570Z,19.10
2023-03-22T09:48:01.237Z,19.43
2023-03-22T09:52:04.593Z,18.75
2023-03-22T09:56:12.895Z,19.16
2023-03-22T10:00:23.486Z,19.53
2023-03-22T10:04:55.040Z,19.73
2023-03-22T10:09:11.857Z,19.57
2023-03-22T10:13:22.832Z,19.86
2023-03-22T10:17:30.904Z,19.69
2023-03-22T10:21:32.331Z,19.92
2023-03-22T10:25:42.708Z,19.91
2023-03-22T10:29:47.162Z,20.07
2023-03-22T10:33:58.576Z,20.65
2023-03-22T10:38:03.655Z,20.86
2023-03-22T10:42:13.485Z,21.90
2023-03-22T10:46:22.137Z,21.01
2023-03-22T10:50:29.754Z,21.20
2023-03-22T10:54:34.198Z,21.13
2023-03-22T10:58:40.433Z,21.94
2023-03-22T11:02:55.838Z,22.32
2023-03-22T11:06:59.333Z,22.37
2023-03-22T11:11:04.595Z,22.21
2023-03-22T11:15:30.638Z,22.77
2023-03-22T11:19:37.077Z,22.99
2023-03-22T11:23:40.894Z,23.64
2023-03-22T11:27:53.552Z,25.07
2023-03-22T11:32:01.438Z,24.13
2023-03-22T11:36:05.942Z,24.33
2023-03-22T11:40:11.058Z,23.74
2023-03-22T11:44:16.833Z,23.24
2023-03-22T11:48:27.407Z,23.02
2023-03-22T11:52:31.005Z,23.71
2023-03-22T11:56:34.762Z,23.82
2023-03-22T12:00:40.919Z,24.45
2023-03-22T12:04:49.385Z,23.29
2023-03-22T12:08:56.780Z,22.99
2023-03-22T12:13:04.137Z,24.01
2023-03-22T12:17:11.437Z,24.84
2023-03-22T12:21:15.855Z,24.02
2023-03-22T12:25:20.593Z,23.76
2023-03-22T12:29:25.189Z,23.66
2023-03-22T12:33:31.147Z,25.10
2023-03-22T12:37:38.988Z,24.71
2023-03-22T12:41:43.291Z,23.19
2023-03-22T12:45:50.150Z,23.98
2023-03-22T12:50:00.191Z,24.10
2023-03-22T12:54:05.664Z,24.60
2023-03-22T12:58:10.639Z,23.73
2023-03-22T13:02:24.002Z,24.53
2023-03-22T13:06:58.417Z,22.31
2023-03-22T13:11:26.922Z,22.11
2023-03-22T13:15:42.213Z,22.28
2023-03-22T13:19:55.244Z,22.22
2023-03-22T13:24:22.114Z,22.91
2023-03-22T13:28:37.231Z,23.61
2023-03-22T13:32:39.847Z,23.54
2023-03-22T13:36:40.896Z,22.98
2023-03-22T13:40:53.290Z,23.04
2023-03-22T13:45:04.163Z,22.28
2023-03-22T13:49:36.237Z,22.61
2023-03-22T13:53:38.884Z,23.51
2023-03-22T13:57:54.383Z,22.34
2023-03-22T14:02:08.054Z,22.01
2023-03-22T14:06:20.558Z,21.41
2023-03-22T14:10:30.412Z,21.21
2023-03-22T14:14:38.489Z,20.85
2023-03-22T14:18:49.906Z,21.06
2023-03-22T14:55:43.678Z,21.69
2023-03-22T14:59:50.214Z,21.16
2023-03-22T15:03:59.044Z,20.94
2023-03-22T15:08:13.912Z,20.78
2023-03-22T15:12:16.085Z,20.50
2023-03-22T15:16:22.351Z,21.05
2023-03-22T15:20:31.406Z,20.82
2023-03-22T15:24:40.502Z,20.60
2023-03-22T15:28:49.422Z,20.62
2023-03-22T15:32:50.631Z,20.35
2023-03-22T15:36:56.210Z,21.43
2023-03-22T15:41:00.206Z,21.83
2023-03-22T15:45:05.172Z,21.89
2023-03-22T15:49:23.437Z,21.23
2023-03-22T15:53:34.232Z,20.79
2023-03-22T15:57:52.888Z,21.12
2023-03-22T16:01:55.352Z,21.20
2023-03-22T16:05:57.149Z,21.00
2023-03-22T16:09:59.410Z,21.23
2023-03-22T16:14:07.216Z,21.17
2023-03-22T16:18:13.257Z,20.71
2023-03-22T16:22:16.870Z,20.48
2023-03-22T16:26:20.350Z,19.84
2023-03-22T16:30:24.127Z,19.84
2023-03-22T16:34:24.533Z,19.99
2023-03-22T16:38:28.391Z,19.89
2023-03-22T16:42:29.648Z,19.70
2023-03-22T16:46:34.245Z,19.74
2023-03-22T16:50:38.323Z,19.82
2023-03-22T16:54:40.646Z,19.69
2023-03-22T16:58:41.332Z,19.27
2023-03-22T17:02:44.823Z,19.06
2023-03-22T17:06:46.327Z,18.83
2023-03-22T17:10:48.162Z,18.86
2023-03-22T17:14:51.572Z,18.80
2023-03-22T17:18:57.564Z,18.75
2023-03-22T17:23:01.942Z,18.81
2023-03-22T17:27:08.596Z,18.59
2023-03-22T17:31:14.334Z,18.35
2023-03-22T17:35:24.022Z,18.22
2023-03-22T17:39:51.372Z,18.09
2023-03-22T17:43:49.322Z,17.58
2023-03-22T17:47:51.309Z,17.31
2023-03-22T17:51:56.127Z,17.30
2023-03-22T17:56:25.839Z,17.08
2023-03-22T18:00:26.113Z,16.82
2023-03-22T18:04:28.096Z,16.71
2023-03-22T18:08:33.226Z,16.57
2023-03-22T18:12:33.876Z,16.55
2023-03-22T18:16:53.304Z,16.57
2023-03-22T18:24:58.684Z,16.06
2023-03-22T18:29:00.153Z,15.82
2023-03-22T18:33:05.954Z,15.82
2023-03-22T18:37:08.605Z,15.59
2023-03-22T18:41:37.575Z,15.36
2023-03-22T18:49:57.627Z,15.29
2023-03-22T18:53:58.109Z,15.03
2023-03-22T18:58:02.674Z,14.76
2023-03-22T19:02:11.275Z,14.73
2023-03-22T19:06:23.301Z,14.62
2023-03-22T19:10:27.945Z,14.53
2023-03-22T19:18:42.161Z,14.31
2023-03-22T19:22:42.629Z,14.34
2023-03-22T19:26:55.664Z,14.27
2023-03-22T19:31:05.158Z,14.12
2023-03-22T19:35:06.946Z,13.92
2023-03-22T19:39:11.546Z,13.47
2023-03-22T19:43:17.085Z,13.72
2023-03-22T19:47:22.178Z,13.68
2023-03-22T19:51:22.796Z,13.66
2023-03-22T19:55:23.509Z,13.62
2023-03-22T19:59:25.818Z,13.51
2023-03-22T20:03:30.287Z,13.24
2023-03-22T20:07:31.346Z,13.16
2023-03-22T20:11:43.250Z,13.17
2023-03-22T20:15:44.330Z,13.14
2023-03-22T20:19:47.897Z,13.11
2023-03-22T20:23:48.345Z,13.34
2023-03-22T20:27:49.275Z,13.12
2023-03-22T20:31:49.991Z,13.00
2023-03-22T20:35:55.673Z,13.12
2023-03-22T20:39:56.122Z,12.95
2023-03-22T20:44:02.717Z,12.82
2023-03-22T20:48:07.353Z,12.90
2023-03-22T20:52:12.404Z,12.98
2023-03-22T20:56:16.640Z,12.79
2023-03-22T21:00:24.548Z,12.99
2023-03-22T21:04:29.246Z,12.82
2023-03-22T21:08:39.757Z,12.46
2023-03-22T21:12:44.696Z,12.45
2023-03-22T21:16:47.919Z,12.38
2023-03-22T21:20:49.283Z,12.43
2023-03-22T21:24:52.474Z,12.48
2023-03-22T21:28:52.836Z,12.52
2023-03-22T21:32:54.075Z,12.62
2023-03-22T21:36:55.239Z,12.66
2023-03-22T21:41:02.050Z,12.47
2023-03-22T21:45:03.990Z,12.42
2023-03-22T21:49:05.552Z,12.29
2023-03-22T21:53:06.425Z,12.26
2023-03-22T21:57:10.321Z,12.35
2023-03-22T22:01:11.225Z,12.39
2023-03-22T22:05:13.816Z,12.51
2023-03-22T22:09:15.014Z,12.29
2023-03-22T22:13:18.559Z,12.41
2023-03-22T22:17:19.326Z,12.49
2023-03-22T22:21:22.962Z,12.42
2023-03-22T22:25:24.043Z,12.46
2023-03-22T22:29:27.978Z,12.28
2023-03-22T22:33:29.145Z,12.19
2023-03-22T22:37:29.518Z,12.29
2023-03-22T22:41:31.991Z,12.12
2023-03-22T22:45:36.689Z,12.17
2023-03-22T22:49:37.370Z,11.61
2023-03-22T22:53:39.027Z,11.62
2023-03-22T22:57:39.998Z,11.52
2023-03-22T23:01:46.173Z,11.50
2023-03-22T23:05:50.521Z,11.45
2023-03-22T23:09:55.673Z,11.35
2023-03-22T23:14:03.128Z,11.29
2023-03-22T23:18:13.132Z,11.28
2023-03-22T23:22:15.000Z,11.31
2023-03-22T23:26:16.852Z,11.24
2023-03-22T23:30:18.591Z,11.24
2023-03-22T23:34:22.538Z,11.22
2023-03-22T23:38:23.250Z,11.16
2023-03-22T23:42:23.964Z,11.44
2023-03-22T23:46:26.345Z,11.29
2023-03-22T23:50:29.433Z,11.24
2023-03-22T23:54:29.923Z,11.26
2023-03-22T23:58:31.403Z,11.54
